Time;durP1;ratioP1;P1;durP2;ratioP2;P2;SDS_P1;SDS_P2;PMS_P1;PMS_P2;Temp;Humidity;BMP_temperature;BMP_pressure;BME280_temperature;BME280_humidity;BME280_pressure;Samples;Min_cycle;Max_cycle;Signal;HPM_P1;HPM_P2
2022/04/28 00:00:42;;;;;;;11.65;4.20;;;;;;;11.68;47.27;101908.00;4896616;29;20060;-89
2022/04/28 00:03:09;;;;;;;11.55;4.10;;;;;;;11.68;47.45;101913.28;4897754;29;20399;-88
2022/04/28 00:05:35;;;;;;;10.63;5.05;;;;;;;11.66;47.38;101911.66;4898065;29;20037;-89
2022/04/28 00:08:00;;;;;;;9.48;4.50;;;;;;;11.60;47.51;101912.78;4897808;29;20475;-88
2022/04/28 00:10:26;;;;;;;11.23;6.15;;;;;;;11.45;48.29;101910.91;4897887;29;20103;-89
2022/04/28 00:12:52;;;;;;;10.45;4.55;;;;;;;11.40;48.25;101912.91;4896653;29;20527;-89
2022/04/28 00:15:18;;;;;;;15.93;4.93;;;;;;;11.14;48.67;101914.97;4896729;29;20368;-88
2022/04/28 00:17:43;;;;;;;14.68;5.30;;;;;;;11.09;49.05;101912.53;4896242;29;20052;-88
2022/04/28 00:20:09;;;;;;;11.20;4.53;;;;;;;11.18;48.73;101918.31;4897950;29;20028;-89
2022/04/28 00:22:35;;;;;;;15.27;5.60;;;;;;;11.16;48.87;101910.50;4897722;29;20020;-89
2022/04/28 00:25:01;;;;;;;12.45;5.90;;;;;;;11.25;48.71;101912.69;4897617;29;20129;-89
2022/04/28 00:27:26;;;;;;;8.27;4.40;;;;;;;11.11;49.10;101915.94;4897136;29;20047;-89
2022/04/28 00:29:52;;;;;;;13.30;5.03;;;;;;;11.11;49.25;101917.72;4897393;29;20407;-89
2022/04/28 00:32:17;;;;;;;12.50;4.45;;;;;;;11.03;49.47;101918.09;4896692;29;20088;-89
2022/04/28 00:34:43;;;;;;;10.45;4.68;;;;;;;10.98;49.79;101920.09;4897517;29;20039;-89
2022/04/28 00:37:09;;;;;;;14.45;4.78;;;;;;;10.81;50.11;101925.25;4897790;29;20031;-89
2022/04/28 00:39:35;;;;;;;14.05;5.45;;;;;;;10.71;50.27;101922.16;4897663;29;20047;-89
2022/04/28 00:42:00;;;;;;;8.77;4.40;;;;;;;10.66;50.54;101924.13;4897407;29;20029;-89
2022/04/28 00:44:25;;;;;;;13.13;4.72;;;;;;;10.62;50.53;101925.19;4897235;29;20103;-89
2022/04/28 00:46:51;;;;;;;17.80;4.82;;;;;;;10.57;50.28;101920.16;4897400;29;20052;-88
2022/04/28 00:52:01;;;;;;;14.10;4.57;;;;;;;10.85;50.04;101913.66;4897367;29;20031;-89
2022/04/28 00:54:28;;;;;;;9.23;4.43;;;;;;;10.60;51.28;101912.13;4897682;29;20039;-89
2022/04/28 00:56:53;;;;;;;12.35;4.57;;;;;;;10.73;50.86;101911.59;4897679;29;20111;-88
2022/04/28 00:59:19;;;;;;;9.90;4.38;;;;;;;10.63;51.08;101906.75;4897728;29;20452;-89
2022/04/28 01:01:44;;;;;;;12.77;4.75;;;;;;;10.69;50.49;101906.47;4897217;29;20036;-89
2022/04/28 01:04:10;;;;;;;9.50;4.32;;;;;;;10.69;50.96;101903.84;4897281;29;20103;-88
2022/04/28 01:06:35;;;;;;;10.15;4.85;;;;;;;10.58;50.94;101911.34;4898932;29;20096;-89
2022/04/28 01:09:02;;;;;;;15.65;4.93;;;;;;;10.65;51.22;101910.16;4899866;29;20049;-89
2022/04/28 01:11:28;;;;;;;14.85;4.85;;;;;;;10.70;51.00;101902.06;4900591;29;20053;-89
2022/04/28 01:13:53;;;;;;;14.93;5.22;;;;;;;10.67;51.35;101897.81;4898737;29;20025;-89
2022/04/28 01:16:18;;;;;;;10.43;4.40;;;;;;;10.61;51.11;101903.34;4906443;29;20079;-89
2022/04/28 01:18:44;;;;;;;13.48;4.25;;;;;;;10.68;50.90;101896.03;4916569;29;20036;-89
2022/04/28 01:21:10;;;;;;;11.02;4.53;;;;;;;10.66;51.40;101901.38;4918500;29;20034;-88
2022/04/28 01:23:36;;;;;;;8.38;4.15;;;;;;;10.67;50.88;101895.19;4919635;29;20033;-89
2022/04/28 01:26:03;;;;;;;12.10;4.93;;;;;;;10.77;51.08;101898.25;4919598;29;20065;-89
2022/04/28 01:28:33;;;;;;;10.60;4.43;;;;;;;10.71;51.08;101901.16;4919955;29;20032;-89
2022/04/28 01:31:00;;;;;;;15.88;5.60;;;;;;;10.74;51.34;101893.13;4919166;29;20024;-89
2022/04/28 01:33:26;;;;;;;12.88;4.78;;;;;;;10.71;51.15;101903.78;4905623;29;20032;-89
2022/04/28 01:35:51;;;;;;;13.18;3.95;;;;;;;10.64;51.45;101900.59;4900653;29;20127;-89
2022/04/28 01:38:16;;;;;;;9.27;4.32;;;;;;;10.60;51.94;101912.13;4899309;29;20029;-89
2022/04/28 01:40:44;;;;;;;9.02;4.18;;;;;;;10.58;52.16;101910.50;4900725;29;20025;-89
2022/04/28 01:43:09;;;;;;;11.40;4.35;;;;;;;10.61;52.22;101911.22;4899122;29;20128;-89
2022/04/28 01:45:34;;;;;;;14.15;5.07;;;;;;;10.45;51.93;101910.19;4900456;29;20053;-89
2022/04/28 01:48:00;;;;;;;7.05;3.80;;;;;;;10.63;52.33;101911.16;4900024;29;20052;-88
2022/04/28 01:50:25;;;;;;;11.65;4.80;;;;;;;10.52;51.87;101914.22;4900319;29;20024;-90
2022/04/28 01:55:35;;;;;;;19.88;4.55;;;;;;;10.63;51.99;101919.88;4900429;29;20071;-89
2022/04/28 01:58:00;;;;;;;9.77;4.13;;;;;;;10.32;53.03;101907.22;4900126;29;20122;-88
2022/04/28 02:00:26;;;;;;;11.73;4.35;;;;;;;10.57;52.44;101914.06;4899324;29;20495;-89
2022/04/28 02:02:51;;;;;;;9.57;3.83;;;;;;;10.43;52.42;101909.41;4899845;29;20309;-89
2022/04/28 02:05:17;;;;;;;13.40;4.85;;;;;;;10.51;52.38;101909.91;4899965;29;20079;-88
2022/04/28 02:07:43;;;;;;;9.00;3.85;;;;;;;10.52;52.20;101906.34;4899953;29;20028;-88
2022/04/28 02:10:08;;;;;;;10.50;4.10;;;;;;;10.56;52.29;101910.56;4898736;29;20036;-89
2022/04/28 02:12:34;;;;;;;15.63;4.45;;;;;;;10.54;51.93;101899.25;4899797;29;20164;-89
2022/04/28 02:14:59;;;;;;;10.07;4.10;;;;;;;10.52;51.61;101911.59;4900058;29;20029;-89
2022/04/28 02:17:27;;;;;;;14.30;4.68;;;;;;;10.50;52.28;101910.81;4899181;29;20131;-89
2022/04/28 02:19:53;;;;;;;8.45;3.65;;;;;;;10.34;52.17;101910.63;4899753;29;20111;-89
2022/04/28 02:22:19;;;;;;;9.38;3.90;;;;;;;10.48;52.40;101924.00;4898481;29;20069;-89
2022/04/28 02:24:44;;;;;;;13.80;5.40;;;;;;;10.44;52.21;101932.09;4899740;29;20029;-89
2022/04/28 02:27:10;;;;;;;10.73;3.95;;;;;;;10.34;52.25;101933.41;4899600;29;20032;-88
2022/04/28 02:29:35;;;;;;;9.32;3.92;;;;;;;10.35;52.42;101924.59;4898537;29;20025;-88
2022/04/28 02:32:01;;;;;;;19.10;4.15;;;;;;;10.20;52.66;101932.19;4898017;29;20119;-89
2022/04/28 02:34:27;;;;;;;10.90;4.40;;;;;;;10.21;53.00;101933.91;4899302;29;20040;-88
2022/04/28 02:36:53;;;;;;;11.85;4.10;;;;;;;10.23;52.81;101942.56;4899587;29;20024;-89
2022/04/28 02:39:18;;;;;;;12.55;5.25;;;;;;;10.28;52.89;101934.50;4898584;29;20040;-89
2022/04/28 02:41:45;;;;;;;11.43;3.85;;;;;;;9.92;53.71;101946.44;4899549;29;20039;-89
2022/04/28 02:44:14;;;;;;;9.80;4.15;;;;;;;10.10;53.30;101952.72;4899573;29;20029;-89
2022/04/28 02:46:42;;;;;;;8.13;3.70;;;;;;;10.12;53.29;101945.63;4898858;29;20115;-89
2022/04/28 02:49:11;;;;;;;10.30;3.80;;;;;;;10.04;53.84;101949.50;4899091;29;20402;-89
2022/04/28 02:51:36;;;;;;;10.10;4.15;;;;;;;9.76;54.03;101950.63;4899146;29;20032;-89
2022/04/28 02:54:02;;;;;;;10.55;4.00;;;;;;;9.95;53.23;101947.25;4913496;29;20076;-89
2022/04/28 02:56:28;;;;;;;10.40;3.75;;;;;;;9.95;53.80;101948.09;4899104;29;20103;-89
2022/04/28 02:58:54;;;;;;;21.13;4.63;;;;;;;9.88;54.06;101955.38;4899092;29;20070;-88
2022/04/28 03:01:20;;;;;;;9.73;4.25;;;;;;;9.90;53.69;101953.53;4899190;29;20028;-89
2022/04/28 03:03:45;;;;;;;10.43;4.93;;;;;;;9.91;53.29;101947.38;4898501;29;20550;-89
2022/04/28 03:11:38;;;;;;;7.90;3.95;;;;;;;9.77;53.90;101944.44;4898945;29;20071;-89
2022/04/28 03:14:04;;;;;;;7.93;3.95;;;;;;;9.76;54.19;101944.53;4913460;29;20052;-88
2022/04/28 03:16:29;;;;;;;9.07;4.32;;;;;;;9.65;54.02;101940.53;4897386;29;20028;-88
2022/04/28 03:18:55;;;;;;;13.13;4.93;;;;;;;9.70;53.82;101943.00;4898576;29;20077;-88
2022/04/28 03:21:21;;;;;;;9.95;4.45;;;;;;;9.48;54.03;101935.97;4913558;29;20035;-89
2022/04/28 03:23:46;;;;;;;10.88;4.43;;;;;;;9.55;54.63;101938.34;4898864;29;20077;-89
2022/04/28 03:26:12;;;;;;;10.88;4.57;;;;;;;9.62;54.27;101945.06;4898699;29;20055;-89
2022/04/28 03:28:38;;;;;;;7.53;3.88;;;;;;;9.70;54.34;101950.84;4898082;29;20150;-89
2022/04/28 03:31:04;;;;;;;7.20;3.90;;;;;;;9.71;53.68;101956.03;4912754;29;20432;-89
2022/04/28 03:33:30;;;;;;;11.07;3.97;;;;;;;9.62;54.07;101956.41;4897605;29;20119;-89
2022/04/28 03:35:55;;;;;;;11.85;4.10;;;;;;;9.62;54.23;101952.94;4898312;29;20107;-89
2022/04/28 03:38:21;;;;;;;10.85;3.95;;;;;;;9.55;54.34;101946.22;4898839;29;20028;-88
2022/04/28 03:40:47;;;;;;;12.15;4.07;;;;;;;9.52;54.46;101953.28;4898537;29;20032;-88
2022/04/28 03:43:12;;;;;;;5.30;3.70;;;;;;;9.47;54.69;101955.22;4899042;29;20036;-87
2022/04/28 03:45:38;;;;;;;7.93;4.50;;;;;;;9.46;54.59;101953.53;4912039;29;20031;-88
2022/04/28 03:48:08;;;;;;;13.02;4.78;;;;;;;9.29;55.68;101948.06;4917635;29;20060;-87
2022/04/28 03:50:33;;;;;;;13.30;4.55;;;;;;;9.38;54.81;101949.47;4915691;29;20025;-88
2022/04/28 03:52:59;;;;;;;9.60;4.50;;;;;;;9.45;54.75;101954.44;4898446;29;20100;-89
2022/04/28 03:55:25;;;;;;;9.52;4.22;;;;;;;9.48;54.46;101956.94;4898231;29;20096;-89
2022/04/28 03:57:51;;;;;;;9.45;4.63;;;;;;;9.45;55.20;101951.81;4896996;29;20037;-88
2022/04/28 04:00:17;;;;;;;11.95;3.88;;;;;;;9.44;54.82;101955.34;4897912;29;20036;-89
2022/04/28 04:02:42;;;;;;;7.95;3.67;;;;;;;9.42;54.58;101951.94;4897587;29;20096;-88
2022/04/28 04:05:09;;;;;;;15.75;4.78;;;;;;;9.42;54.93;101949.31;4897887;29;20024;-88
2022/04/28 04:07:38;;;;;;;14.23;5.32;;;;;;;9.51;54.96;101950.72;4912197;29;20032;-89
2022/04/28 04:10:07;;;;;;;10.55;4.65;;;;;;;9.59;54.50;101946.03;4897581;29;20028;-88
2022/04/28 04:12:33;;;;;;;10.02;4.43;;;;;;;9.56;54.45;101947.91;4897657;29;20032;-88
2022/04/28 04:14:58;;;;;;;9.90;4.30;;;;;;;9.56;54.83;101948.78;4897014;29;20033;-88
2022/04/28 04:17:23;;;;;;;11.63;5.72;;;;;;;9.49;54.58;101948.16;4898138;29;20021;-88
2022/04/28 04:19:49;;;;;;;11.98;4.60;;;;;;;9.59;54.68;101951.25;4897674;29;20088;-88
2022/04/28 04:22:14;;;;;;;16.45;4.55;;;;;;;9.49;54.50;101944.69;4897724;29;20028;-88
2022/04/28 04:24:42;;;;;;;11.95;4.57;;;;;;;9.50;55.12;101942.00;4897289;29;20029;-89
2022/04/28 04:27:09;;;;;;;9.63;4.40;;;;;;;9.64;55.08;101938.84;4897537;29;20041;-89
2022/04/28 04:29:35;;;;;;;10.98;3.75;;;;;;;9.58;55.54;101940.84;4897211;29;20025;-88
2022/04/28 04:32:20;;;;;;;13.05;4.10;;;;;;;9.60;54.61;101946.91;4897315;29;20036;-88
2022/04/28 04:34:47;;;;;;;14.98;4.20;;;;;;;9.57;55.31;101953.09;4897529;29;20028;-88
2022/04/28 04:37:13;;;;;;;13.38;4.53;;;;;;;9.59;54.68;101943.41;4897745;29;20113;-88
2022/04/28 04:39:40;;;;;;;12.75;4.38;;;;;;;9.77;54.09;101956.72;4900147;29;20372;-89
2022/04/28 04:42:07;;;;;;;7.32;4.00;;;;;;;9.76;54.54;101953.25;4920496;29;20024;-88
2022/04/28 04:44:32;;;;;;;11.27;3.28;;;;;;;9.87;54.53;101942.28;4920901;29;20471;-88
2022/04/28 04:46:58;;;;;;;17.25;5.22;;;;;;;9.85;53.97;101952.88;4935705;29;20028;-88
2022/04/28 04:49:23;;;;;;;13.70;3.58;;;;;;;9.97;54.01;101948.03;4921230;29;20028;-88
2022/04/28 04:51:48;;;;;;;14.45;3.90;;;;;;;10.00;53.36;101945.28;4920369;29;20502;-88
2022/04/28 04:54:14;;;;;;;8.82;3.42;;;;;;;10.08;53.52;101951.06;4921220;29;20394;-89
2022/04/28 04:56:39;;;;;;;8.60;3.42;;;;;;;10.19;53.60;101956.75;4903872;29;20036;-89
2022/04/28 04:59:05;;;;;;;7.40;3.25;;;;;;;10.22;53.38;101958.38;4900999;29;20028;-89
2022/04/28 05:01:30;;;;;;;10.15;3.20;;;;;;;10.16;53.56;101958.63;4900445;29;20496;-89
2022/04/28 05:03:55;;;;;;;8.73;3.53;;;;;;;10.20;53.45;101983.84;4901369;29;20021;-89
2022/04/28 05:06:21;;;;;;;8.05;3.45;;;;;;;10.21;53.40;101981.16;4899908;29;20031;-88
2022/04/28 05:08:46;;;;;;;7.43;3.50;;;;;;;10.26;53.71;101979.19;4901586;29;20036;-89
2022/04/28 05:11:12;;;;;;;6.85;3.58;;;;;;;10.29;53.33;101980.84;4900984;29;20032;-88
2022/04/28 05:13:37;;;;;;;7.40;3.33;;;;;;;10.30;53.27;101978.16;4898815;29;20456;-90
2022/04/28 05:16:03;;;;;;;10.77;3.45;;;;;;;10.27;53.45;101975.66;4898567;29;20396;-89
2022/04/28 05:18:30;;;;;;;7.35;3.22;;;;;;;10.36;52.94;101978.84;4900807;29;20033;-90
2022/04/28 05:20:55;;;;;;;7.82;3.20;;;;;;;10.38;52.85;101987.50;4900997;29;20036;-90
2022/04/28 05:23:21;;;;;;;9.23;3.10;;;;;;;10.30;53.60;101977.31;4899201;29;20555;-89
2022/04/28 05:25:47;;;;;;;10.05;3.33;;;;;;;10.34;52.99;101975.44;4898164;29;20036;-90
2022/04/28 05:28:13;;;;;;;12.50;4.53;;;;;;;10.48;53.27;101992.28;4899939;29;20043;-91
2022/04/28 05:30:39;;;;;;;11.05;3.95;;;;;;;10.58;53.04;102000.63;4899816;29;20107;-89
2022/04/28 05:33:04;;;;;;;8.38;3.50;;;;;;;10.64;53.18;102004.78;4899651;29;20054;-90
2022/04/28 05:35:30;;;;;;;10.10;3.00;;;;;;;10.78;52.74;102004.19;4899543;29;20076;-89
2022/04/28 05:37:56;;;;;;;9.30;3.67;;;;;;;10.94;52.38;102009.63;4899078;29;20100;-90
2022/04/28 05:40:22;;;;;;;9.05;3.13;;;;;;;11.03;52.43;102012.69;4900160;29;20551;-88
2022/04/28 05:45:42;;;;;;;10.13;3.25;;;;;;;11.01;52.74;102011.91;4900334;29;20057;-89
2022/04/28 05:48:08;;;;;;;4.40;2.17;;;;;;;11.06;52.57;102017.84;4900124;29;20369;-88
2022/04/28 05:50:34;;;;;;;5.78;2.70;;;;;;;11.12;52.20;102021.97;4899228;29;20032;-88
2022/04/28 05:52:59;;;;;;;9.65;3.35;;;;;;;11.14;52.36;102012.25;4898479;29;20035;-90
2022/04/28 05:55:25;;;;;;;8.98;3.17;;;;;;;11.24;52.09;102020.56;4915131;29;20028;-91
2022/04/28 05:57:50;;;;;;;7.45;3.25;;;;;;;11.22;52.35;102014.53;4900591;29;20491;-93
2022/04/28 06:00:17;;;;;;;8.93;3.03;;;;;;;11.30;51.89;102009.78;4899415;29;20028;-90
2022/04/28 06:02:42;;;;;;;6.07;2.75;;;;;;;11.40;51.74;102008.44;4898145;29;20033;-90
2022/04/28 06:05:08;;;;;;;7.82;3.20;;;;;;;11.31;51.72;102016.72;4900114;29;20036;-90
2022/04/28 06:07:33;;;;;;;6.15;3.05;;;;;;;11.48;51.78;102027.34;4899991;29;20029;-90
2022/04/28 06:09:59;;;;;;;7.38;2.78;;;;;;;11.46;52.20;102023.94;4898825;29;20062;-90
2022/04/28 06:12:28;;;;;;;8.52;3.03;;;;;;;11.49;51.54;102021.16;4898413;29;20040;-89
2022/04/28 06:14:54;;;;;;;8.80;3.50;;;;;;;11.55;51.73;102022.63;4899826;29;20048;-88
2022/04/28 06:17:20;;;;;;;11.98;3.10;;;;;;;11.58;52.03;102019.03;4913825;29;20107;-88
2022/04/28 06:19:45;;;;;;;13.07;3.58;;;;;;;11.77;51.03;102030.41;4898764;29;20031;-88
2022/04/28 06:22:11;;;;;;;11.77;3.10;;;;;;;11.83;50.89;102034.53;4899453;29;20028;-88
2022/04/28 06:24:37;;;;;;;9.93;3.72;;;;;;;11.87;50.36;102029.03;4898249;29;20057;-89
2022/04/28 06:27:03;;;;;;;10.18;3.97;;;;;;;12.01;50.15;102032.84;4897424;29;20025;-88
2022/04/28 06:29:28;;;;;;;20.58;6.50;;;;;;;12.03;50.12;102025.72;4899675;29;20037;-88
2022/04/28 06:31:54;;;;;;;12.77;5.95;;;;;;;12.11;49.71;102020.94;4898766;29;20103;-88
2022/04/28 06:34:19;;;;;;;6.75;3.78;;;;;;;12.21;49.58;102030.06;4899273;29;20112;-89
2022/04/28 06:36:44;;;;;;;10.48;3.33;;;;;;;12.24;49.36;102024.66;4899412;29;20025;-89
2022/04/28 06:39:10;;;;;;;11.35;3.97;;;;;;;12.47;49.26;102023.50;4898971;29;20039;-89
2022/04/28 06:41:35;;;;;;;13.57;4.30;;;;;;;12.51;48.62;102032.13;4899378;29;20037;-89
2022/04/28 06:44:01;;;;;;;12.98;3.70;;;;;;;12.63;48.97;102031.50;4898752;29;20024;-88
2022/04/28 06:46:26;;;;;;;9.45;3.08;;;;;;;12.57;48.94;102031.81;4899193;29;20064;-88
2022/04/28 06:48:52;;;;;;;12.05;3.65;;;;;;;12.75;49.04;102039.72;4898247;29;20028;-88
2022/04/28 06:51:17;;;;;;;12.18;3.90;;;;;;;12.88;48.70;102049.56;4897931;29;20033;-88
2022/04/28 06:53:42;;;;;;;9.93;3.83;;;;;;;12.77;49.07;102037.84;4898429;29;20501;-87
2022/04/28 06:56:08;;;;;;;10.77;2.95;;;;;;;13.01;48.92;102035.72;4897818;29;20091;-89
2022/04/28 06:58:34;;;;;;;13.75;3.42;;;;;;;13.03;48.54;102033.84;4896542;29;20413;-88
2022/04/28 07:00:59;;;;;;;9.63;3.60;;;;;;;13.12;48.98;102041.31;4912593;29;20063;-88
2022/04/28 07:03:25;;;;;;;9.02;2.67;;;;;;;13.22;48.79;102046.94;4898379;29;20108;-88
2022/04/28 07:05:53;;;;;;;9.85;3.08;;;;;;;13.27;48.67;102050.19;4897700;29;20039;-88
2022/04/28 07:08:18;;;;;;;4.97;2.78;;;;;;;13.37;48.54;102045.28;4898276;29;20033;-88
2022/04/28 07:10:43;;;;;;;7.38;3.42;;;;;;;13.41;48.61;102046.84;4897753;29;20109;-87
2022/04/28 07:13:09;;;;;;;18.23;4.50;;;;;;;13.61;48.78;102049.25;4898623;29;20120;-88
2022/04/28 07:15:38;;;;;;;10.13;3.50;;;;;;;14.53;47.29;102053.75;4898431;29;20028;-88
2022/04/28 07:18:04;;;;;;;13.40;3.25;;;;;;;15.37;45.39;102052.31;4898846;29;20464;-88
2022/04/28 07:20:31;;;;;;;7.43;3.22;;;;;;;16.74;42.77;102056.75;4897428;29;20049;-88
2022/04/28 07:22:59;;;;;;;7.68;2.60;;;;;;;17.75;41.98;102049.69;4898334;29;20036;-90
2022/04/28 07:25:28;;;;;;;11.00;3.20;;;;;;;18.29;39.44;102039.63;4901075;29;20177;-89
2022/04/28 07:27:54;;;;;;;6.30;2.40;;;;;;;18.80;39.88;102050.81;4917237;29;20036;-89
2022/04/28 07:30:21;;;;;;;6.65;2.40;;;;;;;18.57;38.85;102049.03;4914494;29;20073;-89
2022/04/28 07:32:48;;;;;;;6.40;2.25;;;;;;;18.31;39.14;102051.00;4899075;29;20042;-89
2022/04/28 07:35:14;;;;;;;10.38;4.07;;;;;;;17.92;39.88;102051.16;4900892;29;20056;-88
2022/04/28 07:37:39;;;;;;;3.95;2.70;;;;;;;17.94;40.02;102051.88;4898326;29;20035;-88
2022/04/28 07:40:05;;;;;;;8.35;2.88;;;;;;;17.97;39.90;102048.13;4898934;29;20090;-87
2022/04/28 07:42:33;;;;;;;8.82;2.88;;;;;;;17.68;40.67;102059.06;4898077;29;20032;-87
2022/04/28 07:44:58;;;;;;;8.57;2.85;;;;;;;17.47;41.16;102052.63;4898779;29;20064;-87
2022/04/28 07:47:26;;;;;;;12.15;2.83;;;;;;;17.15;41.64;102051.28;4898602;29;20073;-87
2022/04/28 07:49:52;;;;;;;13.88;3.22;;;;;;;16.94;41.91;102066.91;4897712;29;20025;-87
2022/04/28 07:52:17;;;;;;;11.18;3.53;;;;;;;16.67;42.48;102061.63;4898001;29;20124;-88
2022/04/28 07:54:42;;;;;;;10.60;3.45;;;;;;;16.80;42.55;102051.84;4897803;29;20111;-88
2022/04/28 07:57:08;;;;;;;8.88;2.92;;;;;;;16.55;43.72;102063.28;4900115;29;20035;-90
2022/04/28 07:59:33;;;;;;;7.95;3.40;;;;;;;16.50;43.49;102062.75;4908635;29;20040;-88
2022/04/28 08:01:58;;;;;;;11.57;2.75;;;;;;;16.30;43.86;102072.00;4898074;29;20032;-90
2022/04/28 08:04:24;;;;;;;11.73;3.03;;;;;;;15.83;44.34;102054.75;4897910;29;20033;-88
2022/04/28 08:06:49;;;;;;;10.73;3.60;;;;;;;16.11;43.84;102071.50;4897670;29;20056;-90
2022/04/28 08:09:14;;;;;;;8.85;3.28;;;;;;;16.23;43.83;102070.69;4896292;29;20067;-88
2022/04/28 08:11:41;;;;;;;13.45;4.65;;;;;;;15.99;44.24;102076.66;4897098;29;20371;-87
2022/04/28 08:14:07;;;;;;;12.40;3.67;;;;;;;15.86;44.11;102081.06;4895492;29;20031;-88
2022/04/28 08:16:32;;;;;;;9.82;3.13;;;;;;;15.72;44.59;102087.19;4896949;29;20052;-88
2022/04/28 08:18:58;;;;;;;13.98;3.28;;;;;;;15.62;44.45;102072.81;4897127;29;20411;-88
2022/04/28 08:21:23;;;;;;;9.05;2.90;;;;;;;15.45;44.39;102073.88;4897594;29;20527;-90
2022/04/28 08:23:49;;;;;;;12.10;2.78;;;;;;;15.36;44.44;102080.56;4897062;29;20496;-88
2022/04/28 08:26:14;;;;;;;9.88;3.50;;;;;;;15.70;44.30;102083.78;4899921;29;20071;-87
2022/04/28 08:28:39;;;;;;;11.73;3.25;;;;;;;15.43;44.53;102065.19;4898665;29;20063;-88
2022/04/28 08:31:05;;;;;;;10.10;3.10;;;;;;;15.51;44.64;102097.31;4899542;29;20033;-89
2022/04/28 08:33:30;;;;;;;14.60;3.42;;;;;;;15.83;44.12;102090.03;4897318;29;20028;-87
2022/04/28 08:35:55;;;;;;;12.90;3.53;;;;;;;15.84;43.90;102083.78;4898084;29;20033;-89
2022/04/28 08:38:21;;;;;;;7.57;2.85;;;;;;;15.58;44.53;102087.19;4897823;29;20051;-86
2022/04/28 08:40:49;;;;;;;6.65;2.92;;;;;;;15.83;43.76;102092.66;4897792;29;20116;-87
2022/04/28 08:43:16;;;;;;;9.25;3.10;;;;;;;16.15;43.02;102087.13;4897830;29;20505;-87
2022/04/28 08:48:36;;;;;;;10.25;3.13;;;;;;;16.34;42.65;102081.47;4897657;29;20096;-86
2022/04/28 08:51:02;;;;;;;7.20;2.30;;;;;;;16.37;41.55;102086.56;4896982;29;20044;-87
2022/04/28 08:53:28;;;;;;;9.85;2.53;;;;;;;16.24;41.96;102078.56;4897563;29;20465;-86
2022/04/28 08:55:57;;;;;;;6.75;2.70;;;;;;;16.56;41.58;102080.88;4897967;29;20084;-86
2022/04/28 08:58:23;;;;;;;10.30;3.72;;;;;;;16.51;41.40;102080.34;4897458;29;20029;-87
2022/04/28 09:00:48;;;;;;;11.15;3.80;;;;;;;16.75;41.34;102079.69;4897218;29;20029;-86
2022/04/28 09:03:14;;;;;;;10.23;3.10;;;;;;;16.93;40.61;102074.94;4896679;29;20459;-86
2022/04/28 09:05:40;;;;;;;11.90;3.60;;;;;;;16.88;40.71;102071.75;4897147;29;20100;-86
2022/04/28 09:08:06;;;;;;;6.40;3.17;;;;;;;16.84;40.86;102073.75;4897149;29;20032;-86
2022/04/28 09:10:32;;;;;;;8.18;2.75;;;;;;;16.71;41.19;102073.72;4897221;29;20103;-86
2022/04/28 09:15:51;;;;;;;8.68;2.95;;;;;;;17.04;40.60;102075.91;4897407;29;20039;-87
2022/04/28 09:18:17;;;;;;;6.38;2.70;;;;;;;16.99;40.29;102088.63;4897117;29;20175;-87
2022/04/28 09:20:44;;;;;;;7.13;2.95;;;;;;;16.83;40.49;102090.63;4895865;29;20041;-86
2022/04/28 09:23:11;;;;;;;11.48;3.55;;;;;;;16.78;40.19;102087.41;4896422;29;20065;-87
2022/04/28 09:25:39;;;;;;;10.20;2.75;;;;;;;16.98;39.82;102076.34;4895828;29;20036;-87
2022/04/28 09:28:05;;;;;;;8.88;2.53;;;;;;;17.59;39.14;102086.28;4898835;29;20029;-87
2022/04/28 09:30:45;;;;;;;15.82;4.43;;;;;;;18.48;38.15;102090.44;4900173;29;20506;-87
2022/04/28 09:33:12;;;;;;;6.82;2.83;;;;;;;19.22;36.50;102091.03;4900903;29;20033;-87
2022/04/28 09:35:52;;;;;;;7.28;2.67;;;;;;;19.10;36.79;102096.47;4900609;29;20107;-87
2022/04/28 09:38:19;;;;;;;9.63;3.10;;;;;;;18.90;36.54;102117.50;4897546;29;20510;-88
2022/04/28 09:43:31;;;;;;;12.57;3.05;;;;;;;18.05;37.64;102093.63;4899937;29;20047;-87
2022/04/28 09:45:57;;;;;;;6.25;3.50;;;;;;;18.09;38.03;102094.25;4907746;29;20157;-87
2022/04/28 09:48:27;;;;;;;11.20;3.17;;;;;;;18.10;37.96;102086.16;4906243;29;20117;-87
2022/04/28 09:50:59;;;;;;;5.13;2.60;;;;;;;18.13;38.12;102085.94;4899612;29;20488;-86
2022/04/28 09:53:25;;;;;;;7.15;2.60;;;;;;;18.26;37.35;102083.22;4898272;29;20044;-86
2022/04/28 09:55:53;;;;;;;10.00;2.58;;;;;;;18.29;37.70;102090.97;4886059;29;20029;-87
2022/04/28 09:58:21;;;;;;;12.05;3.42;;;;;;;18.13;37.74;102093.09;4881079;29;20029;-86
2022/04/28 10:00:46;;;;;;;6.53;2.70;;;;;;;18.23;37.40;102091.44;4881067;29;20035;-87
2022/04/28 10:03:12;;;;;;;8.32;2.92;;;;;;;17.98;38.05;102103.00;4893434;29;20028;-85
2022/04/28 10:05:38;;;;;;;9.50;3.15;;;;;;;18.22;38.26;102098.53;4899134;29;20036;-86
2022/04/28 10:08:05;;;;;;;11.43;3.30;;;;;;;18.54;37.56;102097.13;4899803;29;20068;-86
2022/04/28 10:10:31;;;;;;;8.40;3.10;;;;;;;18.46;37.93;102097.69;4899247;29;20065;-86
2022/04/28 10:12:59;;;;;;;7.40;3.03;;;;;;;18.20;37.81;102096.97;4907357;29;20042;-86
2022/04/28 10:15:28;;;;;;;8.65;3.22;;;;;;;18.58;37.57;102096.78;4901386;29;20067;-86
2022/04/28 10:17:59;;;;;;;6.65;2.85;;;;;;;18.86;37.17;102093.88;4899421;29;20557;-86
2022/04/28 10:20:32;;;;;;;7.68;3.38;;;;;;;19.24;36.67;102101.56;4899546;29;20036;-86
2022/04/28 10:23:02;;;;;;;7.97;3.42;;;;;;;19.38;35.95;102112.00;4898190;29;20491;-86
2022/04/28 10:34:09;;;;;;;10.40;3.05;;;;;;;19.93;34.81;102084.63;4899498;29;20063;-86
2022/04/28 10:37:04;;;;;;;5.68;3.00;;;;;;;19.81;35.23;102081.97;4899262;29;20052;-86
2022/04/28 10:39:40;;;;;;;9.20;3.42;;;;;;;19.98;35.03;102079.75;4899290;29;20102;-86
2022/04/28 10:42:14;;;;;;;7.75;2.92;;;;;;;19.79;35.60;102083.06;4899344;29;20507;-88
2022/04/28 10:44:49;;;;;;;9.68;2.97;;;;;;;19.49;35.92;102087.19;4897994;29;20487;-86
2022/04/28 10:47:21;;;;;;;10.88;3.15;;;;;;;19.45;36.05;102090.19;4899589;29;20028;-86
2022/04/28 10:49:52;;;;;;;9.95;3.35;;;;;;;19.25;36.48;102084.63;4899399;29;20364;-89
2022/04/28 10:52:25;;;;;;;12.00;3.93;;;;;;;19.20;36.71;102086.81;4898747;29;20103;-87
2022/04/28 10:54:59;;;;;;;9.27;3.10;;;;;;;18.86;36.63;102094.75;4898968;29;20270;-87
2022/04/28 10:57:30;;;;;;;9.40;3.22;;;;;;;18.83;36.61;102084.31;4899117;29;20029;-87
2022/04/28 10:59:55;;;;;;;13.98;3.40;;;;;;;18.24;37.46;102085.16;4898940;29;20028;-88
2022/04/28 11:02:21;;;;;;;9.40;3.15;;;;;;;18.53;37.55;102088.31;4898748;29;20380;-87
2022/04/28 11:05:06;;;;;;;9.73;3.40;;;;;;;18.57;37.25;102079.13;4898589;29;20036;-88
2022/04/28 11:07:32;;;;;;;6.32;2.90;;;;;;;18.93;37.83;102073.81;4885711;29;20036;-88
2022/04/28 11:10:03;;;;;;;10.48;4.05;;;;;;;19.15;37.08;102080.97;4879935;29;20033;-89
2022/04/28 11:12:37;;;;;;;10.13;3.20;;;;;;;18.79;37.69;102077.50;4880111;29;20056;-88
2022/04/28 11:15:14;;;;;;;8.10;3.10;;;;;;;19.01;37.11;102064.25;4894606;29;20120;-89
2022/04/28 11:17:43;;;;;;;8.43;3.40;;;;;;;19.08;36.66;102080.63;4880137;29;20037;-88
2022/04/28 11:20:16;;;;;;;9.77;3.22;;;;;;;19.20;36.70;102082.31;4889354;29;20168;-88
2022/04/28 11:22:43;;;;;;;9.23;3.50;;;;;;;19.32;36.30;102083.19;4902985;29;20028;-88
2022/04/28 11:25:10;;;;;;;8.68;3.20;;;;;;;19.55;36.10;102085.81;4906554;29;20033;-88
2022/04/28 11:27:35;;;;;;;9.50;3.47;;;;;;;19.66;36.07;102082.31;4897747;29;20041;-87
2022/04/28 11:30:03;;;;;;;12.88;3.00;;;;;;;19.70;35.57;102089.09;4899055;29;20030;-87
2022/04/28 11:32:29;;;;;;;9.48;3.28;;;;;;;19.74;35.30;102088.75;4901477;29;20032;-88
2022/04/28 11:34:56;;;;;;;10.13;3.33;;;;;;;19.70;35.41;102097.94;4899697;29;20029;-89
2022/04/28 11:37:24;;;;;;;9.10;3.38;;;;;;;19.60;35.72;102099.63;4897646;29;20029;-89
2022/04/28 11:39:51;;;;;;;12.02;3.47;;;;;;;19.87;35.51;102095.78;4899311;29;20032;-87
2022/04/28 11:42:18;;;;;;;6.30;3.42;;;;;;;19.49;35.42;102096.97;4898167;29;20451;-87
2022/04/28 11:44:52;;;;;;;10.68;4.00;;;;;;;19.53;35.56;102091.28;4897021;29;20095;-87
2022/04/28 11:47:18;;;;;;;10.20;3.53;;;;;;;19.33;35.58;102092.88;4899733;29;20100;-87
2022/04/28 11:49:44;;;;;;;8.45;3.60;;;;;;;19.57;35.77;102094.56;4897317;29;20029;-87